createdAt,value
2023-05-24T04:00:48.475Z,100069.72
2023-05-24T04:03:51.315Z,100071.56
2023-05-24T04:06:53.982Z,100075.06
2023-05-24T04:09:56.547Z,100076.84
2023-05-24T04:12:58.886Z,100078.72
2023-05-24T04:16:01.954Z,100086.56
2023-05-24T04:19:04.358Z,100079.59
2023-05-24T04:22:06.907Z,100082.16
2023-05-24T04:25:11.873Z,100090.00
2023-05-24T04:28:15.322Z,100092.38
2023-05-24T04:31:17.584Z,100094.78
2023-05-24T04:34:22.360Z,100095.69
2023-05-24T04:37:25.631Z,100098.16
2023-05-24T04:40:28.405Z,100095.47
2023-05-24T04:43:30.677Z,100103.38
2023-05-24T04:46:36.095Z,100094.37
2023-05-24T04:49:39.619Z,100095.00
2023-05-24T04:52:42.111Z,100091.41
2023-05-24T04:55:44.331Z,100093.03
2023-05-24T04:58:47.608Z,100093.88
2023-05-24T05:01:49.939Z,100100.78
2023-05-24T05:04:53.139Z,100104.87
2023-05-24T05:07:55.349Z,100110.25
2023-05-24T05:10:57.904Z,100114.78
2023-05-24T05:14:00.092Z,100109.47
2023-05-24T05:17:02.541Z,100116.44
2023-05-24T05:20:06.034Z,100115.41
2023-05-24T05:23:09.040Z,100123.44
2023-05-24T05:26:11.548Z,100112.22
2023-05-24T05:29:13.996Z,100115.00
2023-05-24T05:32:16.277Z,100124.53
2023-05-24T05:35:18.696Z,100112.22
2023-05-24T05:38:20.934Z,100111.25
2023-05-24T05:41:23.421Z,100115.63
2023-05-24T05:44:25.715Z,100113.66
2023-05-24T05:47:28.240Z,100121.31
2023-05-24T05:50:30.420Z,100117.59
2023-05-24T05:53:36.169Z,100120.06
2023-05-24T05:56:44.811Z,100126.06
2023-05-24T05:59:47.353Z,100125.88
2023-05-24T06:02:49.661Z,100128.34
2023-05-24T06:05:52.357Z,100127.06
2023-05-24T06:08:54.579Z,100132.25
2023-05-24T06:11:57.058Z,100135.81
2023-05-24T06:14:59.572Z,100138.09
2023-05-24T06:18:02.370Z,100139.44
2023-05-24T06:21:04.634Z,100133.78
2023-05-24T06:24:09.701Z,100137.25
2023-05-24T06:27:11.899Z,100140.88
2023-05-24T06:30:14.605Z,100139.16
2023-05-24T06:33:17.396Z,100152.69
2023-05-24T06:36:19.846Z,100146.75
2023-05-24T06:39:22.007Z,100148.84
2023-05-24T06:42:24.438Z,100148.66
2023-05-24T06:45:26.713Z,100146.59
2023-05-24T06:48:29.246Z,100158.69
2023-05-24T06:51:33.794Z,100157.88
2023-05-24T06:54:36.341Z,100168.91
2023-05-24T06:57:38.767Z,100164.78
2023-05-24T07:00:43.026Z,100167.94
2023-05-24T07:03:45.409Z,100169.34
2023-05-24T07:06:48.031Z,100172.72
2023-05-24T07:09:50.334Z,100168.22
2023-05-24T07:12:52.767Z,100167.78
2023-05-24T07:15:54.973Z,100174.94
2023-05-24T07:18:58.344Z,100167.06
2023-05-24T07:22:00.606Z,100175.31
2023-05-24T07:25:04.560Z,100172.72
2023-05-24T07:28:07.062Z,100176.37
2023-05-24T07:31:10.111Z,100175.50
2023-05-24T07:34:12.305Z,100181.44
2023-05-24T07:37:14.799Z,100180.97
2023-05-24T07:40:17.386Z,100187.78
2023-05-24T07:43:19.994Z,100181.06
2023-05-24T07:46:22.359Z,100186.00
2023-05-24T07:49:24.819Z,100186.59
2023-05-24T07:52:30.558Z,100186.34
2023-05-24T07:55:33.806Z,100190.25
2023-05-24T07:58:36.097Z,100192.63
2023-05-24T08:01:39.077Z,100195.72
2023-05-24T08:04:48.195Z,100197.75
2023-05-24T08:07:50.417Z,100200.16
2023-05-24T08:10:54.370Z,100194.84
2023-05-24T08:13:56.832Z,100203.00
2023-05-24T08:17:00.942Z,100202.91
2023-05-24T08:20:06.611Z,100212.19
2023-05-24T08:23:09.156Z,100205.00
2023-05-24T08:26:11.408Z,100203.78
2023-05-24T08:29:14.013Z,100209.59
2023-05-24T08:32:16.332Z,100206.00
2023-05-24T08:35:21.572Z,100210.53
2023-05-24T08:38:24.364Z,100221.34
2023-05-24T08:41:27.552Z,100223.56
2023-05-24T08:44:31.776Z,100225.69
2023-05-24T08:47:35.181Z,100229.78
2023-05-24T08:50:37.481Z,100235.94
2023-05-24T08:53:41.970Z,100225.81
2023-05-24T08:56:48.182Z,100231.41
2023-05-24T08:59:51.041Z,100226.09
2023-05-24T09:02:54.706Z,100242.16
2023-05-24T09:06:00.496Z,100235.75
2023-05-24T09:09:03.929Z,100245.06
2023-05-24T09:12:09.293Z,100247.53
2023-05-24T09:15:12.201Z,100254.25
2023-05-24T09:18:15.285Z,100253.34
2023-05-24T09:21:19.604Z,100259.19
2023-05-24T09:24:23.332Z,100252.12
2023-05-24T09:27:25.689Z,100253.97
2023-05-24T09:30:29.618Z,100252.38
2023-05-24T09:33:33.574Z,100248.59
2023-05-24T09:36:36.828Z,100248.41
2023-05-24T09:39:40.729Z,100246.81
2023-05-24T09:42:43.115Z,100249.72
2023-05-24T09:45:46.828Z,100261.81
2023-05-24T09:48:57.662Z,100253.53
2023-05-24T09:51:59.931Z,100246.25
2023-05-24T09:55:20.669Z,100249.00
2023-05-24T09:58:23.030Z,100247.47
2023-05-24T10:01:26.803Z,100239.75
2023-05-24T10:04:34.055Z,100242.25
2023-05-24T10:07:36.235Z,100243.69
2023-05-24T10:10:38.692Z,100245.50
2023-05-24T10:13:42.118Z,100241.31
2023-05-24T10:16:44.699Z,100238.53
2023-05-24T10:19:47.040Z,100230.03
2023-05-24T10:22:55.600Z,100241.81
2023-05-24T10:26:08.627Z,100240.72
2023-05-24T10:29:24.500Z,100243.22
2023-05-24T10:32:31.588Z,100241.38
2023-05-24T10:35:38.009Z,100240.37
2023-05-24T10:38:52.709Z,100236.09
2023-05-24T10:42:02.846Z,100234.66
2023-05-24T10:45:23.256Z,100237.44
2023-05-24T10:48:28.597Z,100225.62
2023-05-24T10:51:38.516Z,100234.16
2023-05-24T10:54:49.649Z,100228.16
2023-05-24T10:58:05.920Z,100217.09
2023-05-24T11:01:13.872Z,100217.25
2023-05-24T11:04:18.205Z,100217.72
2023-05-24T11:07:20.800Z,100214.16
2023-05-24T11:10:31.627Z,100213.69
2023-05-24T11:13:34.153Z,100213.28
2023-05-24T11:16:39.579Z,100213.94
2023-05-24T11:19:52.197Z,100213.91
2023-05-24T11:22:54.748Z,100201.97
2023-05-24T11:25:57.365Z,100198.62
2023-05-24T11:29:04.182Z,100201.53
2023-05-24T11:35:34.326Z,100185.63
2023-05-24T11:38:37.416Z,100196.84
2023-05-24T11:41:40.458Z,100195.28
2023-05-24T11:44:42.904Z,100193.91
2023-05-24T11:47:45.177Z,100190.47
2023-05-24T11:50:50.373Z,100187.59
2023-05-24T11:53:54.972Z,100188.31
2023-05-24T11:56:58.099Z,100190.34
2023-05-24T12:00:00.403Z,100187.53
2023-05-24T12:03:07.395Z,100187.50
2023-05-24T12:06:10.027Z,100183.00
2023-05-24T12:09:16.801Z,100182.78
2023-05-24T12:12:24.326Z,100188.16
2023-05-24T12:15:29.433Z,100188.78
2023-05-24T12:18:32.468Z,100180.56
2023-05-24T12:21:35.269Z,100182.38
2023-05-24T12:24:38.202Z,100181.25
2023-05-24T12:27:47.674Z,100188.03
2023-05-24T12:30:50.142Z,100185.87
2023-05-24T12:33:54.285Z,100184.47
2023-05-24T12:36:58.376Z,100184.62
2023-05-24T12:40:01.545Z,100185.75
2023-05-24T12:43:05.007Z,100179.31
2023-05-24T12:46:07.689Z,100179.06
2023-05-24T12:49:10.382Z,100180.44
2023-05-24T12:52:13.136Z,100182.00
2023-05-24T12:55:15.652Z,100170.97
2023-05-24T12:58:19.846Z,100170.81
2023-05-24T13:01:22.715Z,100169.22
2023-05-24T13:04:30.394Z,100168.38
2023-05-24T13:07:32.889Z,100160.66
2023-05-24T13:10:35.305Z,100157.56
2023-05-24T13:13:38.307Z,100161.12
2023-05-24T13:16:40.574Z,100155.47
2023-05-24T13:19:43.434Z,100158.53
2023-05-24T13:22:45.573Z,100159.28
2023-05-24T13:33:02.027Z,100147.84
2023-05-24T13:36:04.488Z,100150.56
2023-05-24T13:42:15.119Z,100151.19
2023-05-24T13:45:17.736Z,100146.25
2023-05-24T13:48:19.908Z,100142.25
2023-05-24T13:51:23.537Z,100141.78
2023-05-24T13:54:26.434Z,100140.69
2023-05-24T13:57:43.087Z,100131.59
2023-05-24T14:00:51.239Z,100137.88
2023-05-24T14:03:54.123Z,100142.69
2023-05-24T14:06:56.519Z,100143.72
2023-05-24T14:09:59.015Z,100140.97
2023-05-24T14:13:20.666Z,100138.16
2023-05-24T14:16:24.504Z,100134.88
2023-05-24T14:19:27.012Z,100133.09
2023-05-24T14:22:29.578Z,100131.09
2023-05-24T14:25:32.102Z,100130.94
2023-05-24T14:28:34.543Z,100133.53
2023-05-24T14:31:42.177Z,100135.84
2023-05-24T14:34:44.718Z,100134.47
2023-05-24T14:37:46.907Z,100142.81
2023-05-24T14:40:49.498Z,100133.09
2023-05-24T14:43:52.070Z,100133.16
2023-05-24T14:46:55.628Z,100140.69
2023-05-24T14:49:58.120Z,100144.44
2023-05-24T14:53:01.078Z,100145.16
2023-05-24T14:56:04.973Z,100148.38
2023-05-24T14:59:07.528Z,100151.97
2023-05-24T15:02:09.776Z,100156.19
2023-05-24T15:05:12.209Z,100149.50
2023-05-24T15:08:14.407Z,100158.09
2023-05-24T15:11:17.558Z,100160.69
2023-05-24T15:14:19.696Z,100157.94
2023-05-24T15:17:22.561Z,100164.66
2023-05-24T15:20:26.077Z,100156.25
2023-05-24T15:23:28.742Z,100157.03
2023-05-24T15:26:31.355Z,100165.38
